Main page
METAR-TAF:

METAR-TAF

Airports :

Khon Kaen Airport

Khon Kaen, Thailand

latitude: 16-26N, longitude: 102-50E, elevation: 165 m

Current weather observation

The report was made 1 hour and 29 minutes ago, at 18:00 UTC
Wind 5 kt from the East/Northeast
Temperature 24°C
Humidity 78%
Pressure 1013 hPa
Visibility: 9000 m

METAR: VTUK 011800Z 06005KT 9000 NSC 24/20 Q1013 NOSIG

Time: 02:29 (19:29 UTC)

Forecast

The report was made 2 hours and 29 minutes ago, at 17:00 UTC
Forecast valid from 01 at 18 UTC to 02 at 18 UTC
Wind 5 kt from the Northeast
Visibility: 8000 m

TAF: VTUK 011700Z 0118/0218 05005KT 8000 NSC

Weather observations and forecasts of more than 4000 airports (METAR and TAF reports).

The available stations are represented by yellow and red dots on the map.

Hover mouse over dot to see the name of the station.

Then click to see weather observations and forecasts.

To change the map : click on the green buttons with a black cross to zoom in, on the green button with a dash to zoom out, or on the green arrows for adjacent maps.


METAR-TAF: